EYKA/KUN METAR and TAF weather

Enter ICAO airport designator
Station Type Date Time Source
EYKA METAR 2019/04/25 01:50 UTC NOAA

EYKA 250150Z 12007KT CAVOK 10/M01 Q1021


Station Type Date Time Source
EYKA Decoded METAR 2019/04/25 01:50 UTC NOAA

Kaunas, Lithuania (EYKA) 54-54N 023-55-12E
Apr 24, 2019 - 09:50 PM EDT / 2019.04.25 0150 UTC
Wind: from the ESE (120 degrees) at 8 MPH (7 KT):0
Visibility: greater than 7 mile(s):0
Temperature: 50 F (10 C)
Dew Point: 30 F (-1 C)
Relative Humidity: 46%
Pressure (altimeter): 30.15 in. Hg (1021 hPa)
ob: EYKA 250150Z 12007KT CAVOK 10/M01 Q1021
cycle: 2

Station Type Date Time Source
EYKA TAF 2019/04/24 18:06 UTC NOAA

TAF TAF EYKA 241700Z 2418/2518 14010KT CAVOK

Example: see airport list